Time;durP1;ratioP1;P1;durP2;ratioP2;P2;SDS_P1;SDS_P2;PMS_P1;PMS_P2;Temp;Humidity;BMP_temperature;BMP_pressure;BME280_temperature;BME280_humidity;BME280_pressure;Samples;Min_cycle;Max_cycle;Signal;HPM_P1;HPM_P2
2023/07/26 00:01:49;;;;;;;11.25;9.30;;;21.30;93.80;;;;;;4980154;28;20117;-70
2023/07/26 00:04:15;;;;;;;17.38;9.30;;;21.30;94.00;;;;;;4980594;28;20042;-70
2023/07/26 00:06:41;;;;;;;10.15;8.90;;;21.30;94.00;;;;;;4981957;28;20528;-70
2023/07/26 00:09:08;;;;;;;12.10;8.60;;;21.30;93.90;;;;;;4984842;28;20042;-71
2023/07/26 00:11:35;;;;;;;14.13;8.88;;;21.30;93.90;;;;;;4981271;28;20045;-70
2023/07/26 00:14:03;;;;;;;11.73;8.80;;;21.30;93.80;;;;;;4979851;28;20074;-70
2023/07/26 00:16:30;;;;;;;9.75;8.68;;;21.30;93.80;;;;;;4977850;28;20042;-70
2023/07/26 00:18:57;;;;;;;11.07;8.32;;;21.30;93.80;;;;;;4982685;28;20038;-70
2023/07/26 00:21:23;;;;;;;14.52;8.77;;;21.30;93.80;;;;;;4980715;28;20547;-70
2023/07/26 00:23:49;;;;;;;10.95;8.63;;;21.30;93.90;;;;;;4981004;28;20035;-70
2023/07/26 00:26:15;;;;;;;11.57;8.93;;;21.30;94.00;;;;;;4981515;28;20034;-71
2023/07/26 00:28:41;;;;;;;13.05;8.60;;;21.20;93.90;;;;;;4979294;28;20039;-71
2023/07/26 00:31:07;;;;;;;9.38;8.48;;;21.20;93.90;;;;;;4979700;28;20050;-70
2023/07/26 00:33:33;;;;;;;11.70;8.85;;;21.30;93.80;;;;;;4985824;28;20027;-71
2023/07/26 00:35:59;;;;;;;11.55;8.88;;;21.30;93.80;;;;;;4984963;28;20066;-71
2023/07/26 00:38:26;;;;;;;11.27;8.57;;;21.30;93.90;;;;;;4985363;28;20592;-71
2023/07/26 00:40:52;;;;;;;10.63;8.23;;;21.20;93.90;;;;;;4984743;28;20576;-71
2023/07/26 00:43:18;;;;;;;10.88;8.43;;;21.20;94.00;;;;;;4983405;28;20042;-71
2023/07/26 00:45:44;;;;;;;11.40;8.93;;;21.20;94.00;;;;;;4984283;28;20958;-70
2023/07/26 00:48:11;;;;;;;10.98;8.82;;;21.20;94.00;;;;;;4984195;28;20030;-70
2023/07/26 00:50:39;;;;;;;10.45;8.57;;;21.10;94.10;;;;;;4981128;28;20041;-70
2023/07/26 00:53:06;;;;;;;12.50;9.10;;;21.10;94.00;;;;;;4984024;28;20050;-70
2023/07/26 00:55:34;;;;;;;10.85;8.90;;;21.10;94.00;;;;;;4982613;28;20094;-70
2023/07/26 00:58:01;;;;;;;11.35;9.35;;;21.10;94.00;;;;;;4983568;28;20038;-70
2023/07/26 01:00:27;;;;;;;10.40;8.55;;;21.10;94.00;;;;;;4982328;28;20643;-70
2023/07/26 01:02:53;;;;;;;13.70;9.57;;;21.00;94.20;;;;;;4985247;28;20126;-70
2023/07/26 01:05:20;;;;;;;11.98;8.88;;;21.10;94.10;;;;;;4981013;28;20041;-70
2023/07/26 01:08:09;;;;;;;12.05;8.57;;;21.00;94.10;;;;;;4981874;28;20043;-70
2023/07/26 01:10:59;;;;;;;10.95;9.30;;;21.00;94.10;;;;;;4984555;28;20045;-71
2023/07/26 01:13:42;;;;;;;9.82;8.82;;;21.00;94.10;;;;;;4985684;28;20061;-71
2023/07/26 01:16:08;;;;;;;11.90;9.82;;;21.10;94.10;;;;;;4982113;28;20042;-70
2023/07/26 01:18:34;;;;;;;10.52;8.73;;;21.00;94.10;;;;;;4981601;28;20031;-72
2023/07/26 01:21:00;;;;;;;10.18;8.93;;;21.00;94.10;;;;;;4981875;28;20555;-71
2023/07/26 01:23:26;;;;;;;12.27;9.13;;;21.00;94.10;;;;;;4983139;28;20039;-72
2023/07/26 01:25:54;;;;;;;10.50;9.40;;;21.00;94.10;;;;;;4984270;28;20098;-71
2023/07/26 01:28:20;;;;;;;10.10;9.10;;;21.00;94.20;;;;;;4983670;28;20035;-72
2023/07/26 01:30:48;;;;;;;10.52;9.45;;;21.00;94.10;;;;;;4983928;28;20154;-72
2023/07/26 01:33:15;;;;;;;11.55;9.25;;;20.90;94.70;;;;;;4983995;28;20505;-72
2023/07/26 01:35:41;;;;;;;11.93;10.45;;;20.90;94.50;;;;;;4982349;28;20037;-72
2023/07/26 01:38:08;;;;;;;10.13;9.05;;;20.90;94.40;;;;;;4969713;28;20126;-71
2023/07/26 01:40:35;;;;;;;10.70;9.32;;;20.90;94.30;;;;;;4983527;28;20026;-71
2023/07/26 01:43:01;;;;;;;10.48;9.10;;;21.00;94.30;;;;;;4984746;28;20092;-71
2023/07/26 01:45:28;;;;;;;10.45;9.35;;;21.00;94.30;;;;;;4982946;28;20062;-71
2023/07/26 01:47:54;;;;;;;11.05;9.45;;;21.00;94.40;;;;;;4985157;28;20081;-71
2023/07/26 01:50:20;;;;;;;11.00;9.23;;;21.00;94.40;;;;;;4983090;28;20030;-71
2023/07/26 01:52:46;;;;;;;12.10;9.75;;;21.00;94.40;;;;;;4996170;28;20679;-71
2023/07/26 01:55:12;;;;;;;12.15;9.88;;;20.90;94.30;;;;;;4982941;28;20129;-71
2023/07/26 01:57:38;;;;;;;10.80;9.50;;;21.00;94.40;;;;;;4980582;28;20539;-71
2023/07/26 02:00:04;;;;;;;12.18;9.30;;;21.00;94.50;;;;;;4986646;28;20473;-71
2023/07/26 02:02:38;;;;;;;10.90;9.80;;;20.90;94.50;;;;;;4981391;28;20496;-71
2023/07/26 02:05:05;;;;;;;11.48;9.27;;;21.00;94.50;;;;;;4986481;28;20053;-71
2023/07/26 02:07:32;;;;;;;12.02;10.48;;;21.00;94.50;;;;;;4981378;28;20463;-71
2023/07/26 02:09:57;;;;;;;12.38;9.65;;;21.00;94.60;;;;;;4980399;28;20038;-71
2023/07/26 02:12:23;;;;;;;11.18;9.52;;;21.00;94.60;;;;;;4985437;28;20018;-70
2023/07/26 02:14:50;;;;;;;12.23;10.70;;;20.90;94.60;;;;;;4984037;28;20732;-70
2023/07/26 02:17:16;;;;;;;12.25;9.88;;;21.00;94.60;;;;;;4982164;28;20043;-70
2023/07/26 02:19:42;;;;;;;11.75;9.80;;;20.90;94.60;;;;;;4980765;28;20041;-71
2023/07/26 02:22:08;;;;;;;12.43;10.32;;;20.90;94.70;;;;;;4981685;28;20042;-70
2023/07/26 02:24:34;;;;;;;14.27;10.52;;;20.90;94.80;;;;;;4985634;28;20830;-70
2023/07/26 02:27:01;;;;;;;12.45;10.55;;;20.90;94.80;;;;;;4983916;28;20042;-71
2023/07/26 02:29:28;;;;;;;16.98;10.32;;;21.00;94.70;;;;;;4979381;28;20039;-70
2023/07/26 02:31:54;;;;;;;13.02;10.05;;;21.00;94.70;;;;;;4969521;28;20084;-71
2023/07/26 02:34:20;;;;;;;12.18;10.07;;;21.00;94.70;;;;;;4982592;28;20046;-70
2023/07/26 02:36:46;;;;;;;13.30;10.18;;;21.10;94.60;;;;;;4980810;28;20049;-71
2023/07/26 02:39:12;;;;;;;12.48;9.85;;;21.10;94.50;;;;;;4970165;28;20065;-70
2023/07/26 02:41:38;;;;;;;14.48;10.82;;;21.10;94.60;;;;;;4981638;28;20070;-70
2023/07/26 02:44:04;;;;;;;12.18;10.25;;;21.20;94.50;;;;;;4986242;28;20085;-71
2023/07/26 02:46:30;;;;;;;13.43;9.93;;;21.10;94.60;;;;;;4981032;28;20030;-70
2023/07/26 02:48:56;;;;;;;11.18;9.63;;;21.20;94.50;;;;;;4982126;28;20059;-71
2023/07/26 02:51:22;;;;;;;11.43;10.20;;;21.20;94.30;;;;;;4980447;28;20493;-71
2023/07/26 02:53:49;;;;;;;13.00;10.23;;;21.30;94.30;;;;;;4984333;28;20950;-71
2023/07/26 02:56:15;;;;;;;10.60;9.50;;;21.30;94.20;;;;;;4978590;28;20374;-70
2023/07/26 02:58:41;;;;;;;10.50;9.43;;;21.40;94.00;;;;;;4982558;28;20088;-73
2023/07/26 03:01:07;;;;;;;14.25;10.48;;;21.40;94.00;;;;;;4979385;28;20034;-72
2023/07/26 03:03:33;;;;;;;13.65;10.77;;;21.40;94.10;;;;;;4984985;28;20030;-71
2023/07/26 03:05:59;;;;;;;12.73;11.07;;;21.40;94.00;;;;;;4980413;28;20034;-72
2023/07/26 03:08:26;;;;;;;13.93;10.05;;;21.30;94.00;;;;;;4983466;28;20129;-71
2023/07/26 03:10:52;;;;;;;12.32;10.85;;;21.30;94.20;;;;;;4994355;28;20035;-72
2023/07/26 03:13:18;;;;;;;13.65;10.35;;;21.30;94.20;;;;;;4981424;28;20533;-72
2023/07/26 03:15:45;;;;;;;13.35;11.02;;;21.20;94.20;;;;;;4984429;28;20145;-72
2023/07/26 03:18:11;;;;;;;12.55;10.05;;;21.20;94.30;;;;;;4981621;28;20519;-72
2023/07/26 03:20:37;;;;;;;15.02;10.55;;;21.20;94.30;;;;;;4980984;28;20068;-73
2023/07/26 03:23:03;;;;;;;13.73;11.40;;;21.20;94.30;;;;;;4983554;28;20065;-73
2023/07/26 03:25:28;;;;;;;13.32;11.02;;;21.20;94.40;;;;;;4982308;28;20133;-72
2023/07/26 03:27:55;;;;;;;13.07;11.75;;;21.20;94.40;;;;;;4980060;28;20130;-72
2023/07/26 03:30:21;;;;;;;14.32;11.32;;;21.10;94.50;;;;;;4981797;28;20105;-72
2023/07/26 03:32:47;;;;;;;16.08;11.40;;;21.20;94.50;;;;;;4980819;28;20521;-73
2023/07/26 03:35:13;;;;;;;17.23;11.50;;;21.20;94.50;;;;;;4978846;28;20035;-73
2023/07/26 03:37:39;;;;;;;16.83;12.13;;;21.20;94.50;;;;;;4982497;28;20125;-73
2023/07/26 03:40:06;;;;;;;13.25;11.73;;;21.20;94.60;;;;;;4981727;28;20042;-73
2023/07/26 03:42:32;;;;;;;15.82;11.60;;;21.20;94.50;;;;;;4978200;28;20093;-73
2023/07/26 03:44:58;;;;;;;13.88;11.57;;;21.20;94.60;;;;;;4979967;28;20058;-73
2023/07/26 03:47:24;;;;;;;15.85;11.73;;;21.20;94.70;;;;;;4982220;28;20045;-72
2023/07/26 03:49:50;;;;;;;15.20;11.57;;;21.30;94.60;;;;;;4979416;28;20050;-72
2023/07/26 03:52:16;;;;;;;13.55;11.25;;;21.40;94.50;;;;;;4982062;28;20129;-71
2023/07/26 03:54:42;;;;;;;14.30;10.82;;;21.50;94.50;;;;;;4979803;28;20153;-72
2023/07/26 03:57:08;;;;;;;14.82;10.50;;;21.50;94.30;;;;;;4978731;28;20042;-72
2023/07/26 03:59:34;;;;;;;13.23;11.02;;;21.70;94.30;;;;;;4980998;28;20039;-74
2023/07/26 04:02:00;;;;;;;13.38;11.10;;;21.70;93.90;;;;;;4978653;28;20038;-73
2023/07/26 04:04:26;;;;;;;12.40;10.30;;;21.70;93.80;;;;;;4982637;28;20041;-73
2023/07/26 04:06:52;;;;;;;12.40;10.40;;;21.70;93.80;;;;;;4978364;28;20038;-72
2023/07/26 04:09:18;;;;;;;14.70;10.65;;;21.70;93.60;;;;;;4986380;28;20381;-73
2023/07/26 04:11:44;;;;;;;14.35;11.10;;;21.80;93.60;;;;;;4984534;28;20414;-72
2023/07/26 04:14:09;;;;;;;14.50;10.43;;;21.90;93.60;;;;;;4984164;28;20047;-72
2023/07/26 04:16:38;;;;;;;16.67;11.00;;;22.00;93.40;;;;;;4983499;28;20537;-72
2023/07/26 04:19:04;;;;;;;13.95;10.93;;;22.10;93.10;;;;;;4983425;28;20035;-73
2023/07/26 04:21:30;;;;;;;13.20;9.95;;;22.20;92.90;;;;;;4982106;28;20049;-73
2023/07/26 04:23:56;;;;;;;13.85;10.02;;;22.40;92.80;;;;;;4983316;28;20035;-73
2023/07/26 04:26:22;;;;;;;12.52;10.05;;;22.50;92.40;;;;;;4984654;28;20054;-73
2023/07/26 04:28:48;;;;;;;13.60;10.25;;;22.50;92.30;;;;;;4984012;28;20046;-74
2023/07/26 04:31:14;;;;;;;12.18;9.60;;;22.60;92.20;;;;;;4983575;28;20039;-73
2023/07/26 04:33:40;;;;;;;11.35;9.60;;;22.80;91.90;;;;;;4983175;28;20038;-73
2023/07/26 04:36:06;;;;;;;12.70;9.43;;;22.80;91.70;;;;;;4981174;28;20105;-73
2023/07/26 04:38:32;;;;;;;14.68;10.25;;;22.90;91.60;;;;;;4984315;28;20066;-73
2023/07/26 04:40:58;;;;;;;12.70;9.63;;;23.00;91.40;;;;;;4984079;28;20117;-73
2023/07/26 04:43:24;;;;;;;13.05;10.25;;;23.10;91.30;;;;;;4982346;28;20465;-73
2023/07/26 04:45:52;;;;;;;12.82;9.77;;;23.20;91.00;;;;;;4984677;28;20061;-73
2023/07/26 04:48:19;;;;;;;10.82;9.70;;;23.30;90.90;;;;;;4982105;28;20046;-73
2023/07/26 04:50:47;;;;;;;13.13;9.80;;;23.40;90.80;;;;;;4983130;28;21581;-72
2023/07/26 04:53:13;;;;;;;12.15;9.25;;;23.50;90.40;;;;;;4982521;28;20038;-73
2023/07/26 04:55:46;;;;;;;14.75;10.13;;;23.50;90.30;;;;;;4985045;28;20061;-73
2023/07/26 04:58:12;;;;;;;11.93;9.00;;;23.60;90.20;;;;;;4981636;28;20042;-73
2023/07/26 05:00:40;;;;;;;11.45;8.90;;;23.70;90.30;;;;;;4982008;28;20027;-73
2023/07/26 05:03:06;;;;;;;11.07;9.20;;;23.80;90.00;;;;;;4982415;28;20040;-73
2023/07/26 05:05:36;;;;;;;13.23;8.85;;;23.90;89.70;;;;;;4982006;28;20034;-73
2023/07/26 05:08:02;;;;;;;12.70;9.43;;;24.10;89.20;;;;;;4983052;28;20132;-73
2023/07/26 05:10:29;;;;;;;10.48;8.57;;;24.10;88.20;;;;;;4982487;28;20121;-73
2023/07/26 05:12:59;;;;;;;12.98;8.98;;;24.20;88.20;;;;;;4984843;28;20046;-73
2023/07/26 05:15:25;;;;;;;12.32;8.93;;;24.10;87.80;;;;;;4980487;28;20092;-73
2023/07/26 05:17:52;;;;;;;13.85;9.20;;;24.10;87.70;;;;;;4983372;28;20060;-75
2023/07/26 05:20:18;;;;;;;12.75;8.63;;;24.10;87.80;;;;;;4982075;28;20125;-73
2023/07/26 05:22:44;;;;;;;11.98;8.93;;;24.20;87.50;;;;;;4981679;28;20125;-73
2023/07/26 05:25:10;;;;;;;13.48;9.27;;;24.10;87.60;;;;;;4982085;28;20034;-74
2023/07/26 05:27:36;;;;;;;10.60;8.57;;;24.20;87.10;;;;;;4982864;28;20035;-73
2023/07/26 05:30:02;;;;;;;12.45;9.05;;;24.20;87.10;;;;;;4984809;28;20027;-73
2023/07/26 05:32:30;;;;;;;10.82;8.30;;;24.30;87.00;;;;;;4980530;28;20045;-73
2023/07/26 05:34:57;;;;;;;13.35;9.55;;;24.40;87.00;;;;;;4981022;28;20035;-73
2023/07/26 05:37:24;;;;;;;13.65;9.63;;;24.40;86.20;;;;;;4982087;28;20042;-73
2023/07/26 05:39:51;;;;;;;10.45;9.00;;;24.40;86.30;;;;;;4981841;28;20096;-72
2023/07/26 05:42:18;;;;;;;10.88;9.00;;;24.50;86.40;;;;;;4982718;28;20039;-73
2023/07/26 05:44:44;;;;;;;11.02;8.48;;;24.50;86.10;;;;;;4982322;28;20125;-72
2023/07/26 05:47:11;;;;;;;13.60;8.77;;;24.50;86.10;;;;;;4982846;28;20049;-73
2023/07/26 05:49:42;;;;;;;11.55;8.50;;;24.50;85.90;;;;;;4981308;28;20046;-72
2023/07/26 05:52:08;;;;;;;13.60;8.95;;;24.60;85.90;;;;;;4979617;28;20117;-73
2023/07/26 05:54:34;;;;;;;13.23;8.65;;;24.70;85.40;;;;;;4981150;28;20031;-74
2023/07/26 05:57:00;;;;;;;9.00;7.95;;;24.70;85.10;;;;;;4982167;28;20448;-73
2023/07/26 05:59:27;;;;;;;9.68;8.43;;;24.80;85.30;;;;;;4981732;28;20323;-74
2023/07/26 06:01:53;;;;;;;9.45;8.30;;;24.90;85.70;;;;;;4980957;28;20401;-74
2023/07/26 06:04:18;;;;;;;11.15;8.57;;;24.90;84.60;;;;;;4980939;28;20039;-72
2023/07/26 06:06:45;;;;;;;10.95;8.93;;;24.90;85.00;;;;;;4981305;28;20038;-74
2023/07/26 06:09:12;;;;;;;12.65;9.45;;;24.70;85.20;;;;;;4982658;28;20022;-73
2023/07/26 06:11:38;;;;;;;11.82;8.82;;;24.60;85.50;;;;;;4981668;28;20054;-73
2023/07/26 06:14:04;;;;;;;11.13;8.63;;;24.60;85.80;;;;;;4982338;28;20042;-74
2023/07/26 06:16:30;;;;;;;11.55;8.90;;;24.50;86.30;;;;;;4979779;28;20042;-73
2023/07/26 06:18:56;;;;;;;12.82;8.63;;;24.50;86.50;;;;;;4982749;28;20082;-73
2023/07/26 06:21:22;;;;;;;11.00;8.38;;;24.60;86.60;;;;;;4980223;28;20027;-73
2023/07/26 06:23:48;;;;;;;14.43;8.45;;;24.60;86.20;;;;;;4981739;28;20034;-73
2023/07/26 06:26:14;;;;;;;10.45;7.88;;;24.70;86.30;;;;;;4983329;28;20038;-73
2023/07/26 06:28:41;;;;;;;11.77;8.40;;;24.80;86.20;;;;;;4983676;28;20038;-73
2023/07/26 06:31:07;;;;;;;9.38;8.38;;;24.80;85.70;;;;;;4980320;28;20042;-74
2023/07/26 06:33:33;;;;;;;10.35;7.85;;;24.90;85.80;;;;;;4981080;28;20045;-73
2023/07/26 06:36:00;;;;;;;9.80;8.48;;;25.00;85.40;;;;;;4982323;28;20056;-73
2023/07/26 06:38:26;;;;;;;8.65;7.78;;;25.00;84.70;;;;;;4984825;28;20557;-74
2023/07/26 06:40:52;;;;;;;8.73;7.82;;;25.10;84.90;;;;;;4980388;28;20034;-74
2023/07/26 06:43:18;;;;;;;12.32;8.38;;;25.20;84.70;;;;;;4981158;28;20038;-73
2023/07/26 06:45:46;;;;;;;11.85;7.68;;;25.10;84.80;;;;;;4980240;28;20289;-74
2023/07/26 06:48:12;;;;;;;10.98;7.53;;;25.10;84.60;;;;;;4980310;28;20499;-74
2023/07/26 06:50:41;;;;;;;10.00;8.57;;;25.20;84.30;;;;;;4980647;28;20137;-73
2023/07/26 06:53:08;;;;;;;14.75;8.23;;;25.20;84.20;;;;;;4982354;28;20070;-76
2023/07/26 06:55:34;;;;;;;11.85;8.55;;;25.20;83.40;;;;;;4983449;28;20105;-73
2023/07/26 06:58:00;;;;;;;10.93;8.32;;;25.20;83.80;;;;;;4980455;28;20035;-73
2023/07/26 07:00:26;;;;;;;13.63;8.90;;;25.30;83.50;;;;;;4981716;28;20543;-72
2023/07/26 07:02:56;;;;;;;11.93;8.32;;;25.20;83.60;;;;;;4982857;28;20486;-74
2023/07/26 07:05:23;;;;;;;10.95;8.43;;;25.20;83.60;;;;;;4983674;28;20030;-74
2023/07/26 07:07:49;;;;;;;8.85;7.53;;;25.30;83.80;;;;;;4980537;28;20038;-74
2023/07/26 07:10:15;;;;;;;12.48;8.20;;;25.40;83.60;;;;;;4980227;28;20150;-73
2023/07/26 07:12:41;;;;;;;11.85;8.30;;;25.40;83.30;;;;;;4979731;28;20125;-73
2023/07/26 07:15:08;;;;;;;10.38;8.20;;;25.40;84.10;;;;;;4980774;28;20208;-74
2023/07/26 07:17:35;;;;;;;11.55;8.27;;;25.50;84.30;;;;;;4980468;28;20086;-74
2023/07/26 07:20:01;;;;;;;10.60;8.98;;;25.50;84.00;;;;;;4980504;28;20125;-74
2023/07/26 07:22:27;;;;;;;10.80;8.38;;;25.60;83.90;;;;;;4979380;28;20038;-73
2023/07/26 07:24:53;;;;;;;10.77;8.50;;;25.60;83.30;;;;;;4980143;28;20409;-73
2023/07/26 07:27:20;;;;;;;11.40;8.45;;;25.60;83.00;;;;;;4979367;28;20125;-72
2023/07/26 07:29:46;;;;;;;13.75;8.90;;;25.60;82.90;;;;;;4980223;28;20113;-73
2023/07/26 07:32:13;;;;;;;9.73;8.55;;;25.60;83.00;;;;;;4980289;28;20464;-73
2023/07/26 07:34:39;;;;;;;11.05;7.88;;;25.60;83.10;;;;;;4980858;28;20042;-73
2023/07/26 07:37:05;;;;;;;13.57;8.52;;;25.60;83.00;;;;;;4982180;28;20046;-74
2023/07/26 07:39:32;;;;;;;9.95;8.50;;;25.50;82.80;;;;;;4979955;28;20045;-73
2023/07/26 07:41:58;;;;;;;10.25;8.27;;;25.50;83.20;;;;;;4980418;28;20034;-73
2023/07/26 07:44:26;;;;;;;10.68;8.63;;;25.50;83.80;;;;;;4979831;28;20444;-75
2023/07/26 07:46:52;;;;;;;10.00;8.95;;;25.50;84.00;;;;;;4981502;28;20121;-73
2023/07/26 07:49:18;;;;;;;11.40;8.55;;;25.60;83.50;;;;;;4982528;28;20125;-73
2023/07/26 07:51:44;;;;;;;14.10;9.00;;;25.50;82.90;;;;;;4980940;28;20125;-73
2023/07/26 07:54:10;;;;;;;11.45;8.82;;;25.60;84.30;;;;;;4980824;28;20038;-73
2023/07/26 07:56:36;;;;;;;11.02;8.70;;;25.50;82.70;;;;;;4980840;28;20031;-74
2023/07/26 07:59:02;;;;;;;11.10;9.15;;;25.40;83.10;;;;;;4979740;28;20042;-73
2023/07/26 08:01:28;;;;;;;11.75;8.85;;;25.40;83.50;;;;;;4980250;28;20042;-73
2023/07/26 08:03:53;;;;;;;12.77;8.52;;;25.30;83.60;;;;;;4980137;28;20033;-74
2023/07/26 08:06:19;;;;;;;10.15;9.00;;;25.30;84.00;;;;;;4981039;28;20384;-73
2023/07/26 08:08:45;;;;;;;10.95;9.15;;;25.20;84.20;;;;;;4978726;28;20585;-73
2023/07/26 08:11:11;;;;;;;11.45;9.07;;;25.10;84.80;;;;;;4980602;28;20041;-73
2023/07/26 08:13:37;;;;;;;14.20;9.80;;;25.10;85.40;;;;;;4979309;28;20125;-75
2023/07/26 08:16:03;;;;;;;11.55;9.70;;;25.20;85.50;;;;;;4979873;28;20468;-75
2023/07/26 08:18:29;;;;;;;10.65;9.52;;;25.20;85.60;;;;;;4979371;28;20416;-74
2023/07/26 08:20:55;;;;;;;12.45;9.52;;;25.30;85.60;;;;;;4978832;28;20034;-75
2023/07/26 08:23:21;;;;;;;11.32;8.98;;;25.30;85.50;;;;;;4979039;28;20049;-74
2023/07/26 08:25:47;;;;;;;12.27;9.50;;;25.30;85.70;;;;;;4978839;28;20044;-73
2023/07/26 08:28:13;;;;;;;11.32;8.75;;;25.30;85.80;;;;;;4998172;28;20061;-75
2023/07/26 08:30:39;;;;;;;10.20;9.02;;;25.30;85.90;;;;;;4978310;28;20069;-74
2023/07/26 08:33:05;;;;;;;12.02;9.85;;;25.30;85.80;;;;;;4980402;28;20049;-73
2023/07/26 08:35:31;;;;;;;11.35;9.13;;;25.30;85.80;;;;;;4979865;28;20082;-73
2023/07/26 08:37:57;;;;;;;10.43;8.95;;;25.30;85.90;;;;;;4979828;28;20031;-75
2023/07/26 08:40:23;;;;;;;12.95;9.00;;;25.30;86.30;;;;;;4980329;28;20133;-74
2023/07/26 08:42:49;;;;;;;12.48;8.80;;;25.30;86.50;;;;;;4980517;28;20039;-73
2023/07/26 08:45:17;;;;;;;13.82;9.27;;;25.20;86.20;;;;;;4979592;28;20045;-73
2023/07/26 08:47:44;;;;;;;10.77;8.98;;;25.20;86.40;;;;;;4981906;28;20026;-72
2023/07/26 08:50:10;;;;;;;12.82;9.30;;;25.30;86.50;;;;;;4982121;28;20390;-74
2023/07/26 08:52:37;;;;;;;13.63;9.65;;;25.20;86.50;;;;;;4979185;28;20062;-74
2023/07/26 08:55:03;;;;;;;11.50;9.70;;;25.10;86.50;;;;;;4983474;28;20054;-74
2023/07/26 08:57:29;;;;;;;11.05;8.73;;;25.10;86.40;;;;;;4985721;28;20489;-74
2023/07/26 08:59:55;;;;;;;12.10;9.23;;;25.10;86.40;;;;;;4984165;28;20038;-74
2023/07/26 09:02:23;;;;;;;9.32;8.25;;;25.20;86.20;;;;;;4982131;28;20030;-74
2023/07/26 09:04:49;;;;;;;12.35;8.98;;;25.20;85.80;;;;;;4983712;28;20121;-73
2023/07/26 09:07:15;;;;;;;13.80;9.85;;;25.20;85.90;;;;;;4986015;28;20407;-75
2023/07/26 09:09:41;;;;;;;12.15;9.82;;;25.20;86.00;;;;;;4982701;28;20030;-75
2023/07/26 09:12:07;;;;;;;13.02;9.48;;;25.20;86.20;;;;;;4987928;28;20038;-73
2023/07/26 09:14:34;;;;;;;10.85;8.88;;;25.10;86.50;;;;;;4982459;28;20034;-74
2023/07/26 09:17:02;;;;;;;12.02;9.48;;;25.00;86.80;;;;;;4982067;28;20049;-73
2023/07/26 09:19:30;;;;;;;12.10;8.90;;;25.00;87.30;;;;;;4982827;28;20065;-73
2023/07/26 09:21:59;;;;;;;12.27;10.55;;;25.10;87.20;;;;;;4983347;28;20066;-74
2023/07/26 09:24:51;;;;;;;13.25;9.38;;;25.00;87.50;;;;;;4982833;28;20037;-74
2023/07/26 09:27:19;;;;;;;11.82;8.85;;;25.00;87.60;;;;;;4980444;28;20038;-74
2023/07/26 09:29:55;;;;;;;11.90;9.52;;;25.00;87.60;;;;;;4983619;28;20038;-76
2023/07/26 09:32:30;;;;;;;13.80;9.73;;;25.00;87.10;;;;;;4983447;28;20068;-75
2023/07/26 09:35:04;;;;;;;11.55;9.23;;;25.00;87.20;;;;;;4982319;28;20049;-77
2023/07/26 09:37:33;;;;;;;14.73;9.48;;;25.00;87.50;;;;;;4982470;28;20465;-76
2023/07/26 09:39:59;;;;;;;12.20;9.70;;;25.00;87.80;;;;;;4981604;28;20093;-76
2023/07/26 09:42:40;;;;;;;12.23;9.23;;;24.90;87.80;;;;;;4981533;28;20448;-75
2023/07/26 09:45:06;;;;;;;12.65;10.57;;;24.90;88.30;;;;;;4981711;28;20138;-75
2023/07/26 09:47:35;;;;;;;14.55;10.00;;;24.80;88.60;;;;;;4982986;28;20129;-75
2023/07/26 09:50:01;;;;;;;14.27;9.70;;;24.80;88.40;;;;;;4981516;28;20057;-76
2023/07/26 09:52:29;;;;;;;17.45;9.27;;;24.80;88.70;;;;;;4983238;28;20034;-75
2023/07/26 09:54:55;;;;;;;13.68;9.48;;;24.90;88.70;;;;;;4982884;28;20039;-76
2023/07/26 09:57:22;;;;;;;10.98;9.80;;;24.90;88.60;;;;;;4981230;28;20037;-75
2023/07/26 09:59:50;;;;;;;12.45;9.35;;;24.90;88.70;;;;;;4983299;28;20461;-75
2023/07/26 10:02:16;;;;;;;13.25;9.50;;;24.90;88.90;;;;;;4981425;28;20046;-76
2023/07/26 10:04:51;;;;;;;14.00;10.10;;;24.90;88.90;;;;;;4981258;28;20042;-75
2023/07/26 10:07:18;;;;;;;14.77;9.23;;;24.90;89.00;;;;;;4982669;28;20050;-76
2023/07/26 10:09:45;;;;;;;11.32;10.13;;;25.00;89.20;;;;;;4981811;28;20153;-75
2023/07/26 10:12:12;;;;;;;12.98;9.68;;;25.00;89.30;;;;;;4982697;28;20042;-76
2023/07/26 10:14:39;;;;;;;11.35;8.82;;;25.00;89.20;;;;;;4984347;28;20108;-76
2023/07/26 10:17:06;;;;;;;11.35;10.13;;;25.00;89.40;;;;;;4983269;28;20133;-75
2023/07/26 10:19:32;;;;;;;11.23;9.52;;;25.00;89.60;;;;;;4981542;28;20069;-75
2023/07/26 10:21:58;;;;;;;12.70;9.57;;;25.10;89.70;;;;;;4980172;28;20042;-75
2023/07/26 10:24:26;;;;;;;11.40;9.63;;;25.10;89.90;;;;;;4982155;28;20501;-74
2023/07/26 10:26:55;;;;;;;12.73;9.82;;;25.10;90.10;;;;;;4982470;28;20041;-75
2023/07/26 10:29:21;;;;;;;12.93;9.55;;;25.10;90.00;;;;;;4981076;28;20719;-75
2023/07/26 10:32:00;;;;;;;12.98;9.32;;;25.10;90.00;;;;;;4979779;28;20043;-75
2023/07/26 10:34:26;;;;;;;10.35;9.25;;;25.20;90.10;;;;;;4982701;28;20157;-75
2023/07/26 10:36:53;;;;;;;13.63;10.38;;;25.20;90.40;;;;;;4979779;28;20141;-74
2023/07/26 10:39:34;;;;;;;14.13;9.60;;;25.20;90.40;;;;;;4980905;28;20085;-75
2023/07/26 10:42:02;;;;;;;13.07;9.65;;;25.20;90.30;;;;;;4984864;28;20484;-74
2023/07/26 10:44:28;;;;;;;11.95;10.25;;;25.20;90.40;;;;;;4980457;28;20038;-75
2023/07/26 10:47:04;;;;;;;13.30;9.80;;;25.20;90.30;;;;;;4982511;28;20042;-74
2023/07/26 10:49:33;;;;;;;12.35;9.30;;;25.20;90.20;;;;;;4981592;28;20544;-74
2023/07/26 10:52:06;;;;;;;11.27;9.65;;;25.30;90.30;;;;;;4979526;28;20038;-74
2023/07/26 10:54:33;;;;;;;17.60;11.07;;;25.20;90.50;;;;;;4981731;28;20034;-74
2023/07/26 10:57:31;;;;;;;13.32;9.73;;;25.20;90.50;;;;;;4980545;28;20030;-74
2023/07/26 11:00:11;;;;;;;13.30;10.63;;;25.20;90.50;;;;;;4968762;28;20038;-74
2023/07/26 11:02:46;;;;;;;13.27;10.10;;;25.20;90.70;;;;;;4968420;28;20034;-74
2023/07/26 11:05:16;;;;;;;12.93;9.82;;;25.20;90.50;;;;;;4979289;28;20089;-75
2023/07/26 11:07:50;;;;;;;13.63;10.27;;;25.20;91.00;;;;;;4979153;28;20217;-74
2023/07/26 11:10:30;;;;;;;18.40;10.38;;;25.20;91.30;;;;;;4980626;28;20027;-73
2023/07/26 11:13:17;;;;;;;13.90;11.55;;;25.20;91.10;;;;;;4979534;28;20410;-73
2023/07/26 11:15:48;;;;;;;13.10;9.73;;;25.10;92.20;;;;;;4978581;28;20528;-73
2023/07/26 11:18:16;;;;;;;17.17;10.60;;;25.00;91.90;;;;;;4980011;28;20069;-74
2023/07/26 11:20:48;;;;;;;14.55;11.02;;;25.00;92.30;;;;;;4979629;28;20031;-74
2023/07/26 11:23:25;;;;;;;15.60;11.20;;;25.00;92.10;;;;;;4980094;28;20082;-73
2023/07/26 11:25:53;;;;;;;14.05;11.48;;;25.00;92.40;;;;;;4979947;28;20050;-74
2023/07/26 11:28:20;;;;;;;17.27;12.15;;;24.90;93.40;;;;;;4979372;28;20114;-73
2023/07/26 11:30:48;;;;;;;18.73;12.23;;;24.80;93.90;;;;;;4977845;28;20026;-73
2023/07/26 11:33:25;;;;;;;17.85;12.73;;;24.80;94.00;;;;;;4980555;28;20037;-73
2023/07/26 11:35:51;;;;;;;15.52;11.77;;;24.80;93.80;;;;;;4980880;28;20567;-72
2023/07/26 11:38:17;;;;;;;15.80;11.50;;;24.80;94.00;;;;;;4983381;28;20407;-75
2023/07/26 11:40:44;;;;;;;14.80;12.60;;;24.60;94.30;;;;;;4981136;28;20030;-74
2023/07/26 11:43:11;;;;;;;17.83;12.75;;;24.50;94.60;;;;;;4979593;28;20148;-73
2023/07/26 11:45:38;;;;;;;14.60;11.95;;;24.50;94.30;;;;;;4980064;28;20082;-73
2023/07/26 11:48:06;;;;;;;14.40;12.27;;;24.50;94.00;;;;;;4980425;28;20068;-73
2023/07/26 11:50:32;;;;;;;14.68;12.23;;;24.50;93.90;;;;;;4981621;28;20061;-73
2023/07/26 11:53:25;;;;;;;18.50;12.95;;;24.40;94.00;;;;;;4980636;28;20034;-74
2023/07/26 11:55:51;;;;;;;15.68;12.65;;;24.40;94.20;;;;;;4978400;28;20030;-74
2023/07/26 11:58:17;;;;;;;15.88;12.65;;;24.40;94.10;;;;;;4982744;28;20081;-74
2023/07/26 12:00:43;;;;;;;14.82;12.45;;;24.40;93.80;;;;;;4981775;28;20042;-74
2023/07/26 12:03:10;;;;;;;14.90;12.32;;;24.40;94.20;;;;;;4978753;28;20033;-75
2023/07/26 12:05:42;;;;;;;19.48;13.27;;;24.40;94.50;;;;;;4979165;28;20034;-75
2023/07/26 12:08:08;;;;;;;23.75;13.50;;;24.40;95.00;;;;;;4978934;28;20416;-74
2023/07/26 12:10:37;;;;;;;23.95;14.18;;;24.40;95.20;;;;;;4979124;28;20030;-75
2023/07/26 12:13:08;;;;;;;24.30;14.32;;;24.40;95.10;;;;;;4980130;28;20413;-73
2023/07/26 12:15:59;;;;;;;21.88;13.30;;;24.40;95.20;;;;;;4981284;28;20378;-72
2023/07/26 12:18:26;;;;;;;22.98;13.02;;;24.30;94.80;;;;;;4978466;28;20126;-75
2023/07/26 12:20:56;;;;;;;19.67;13.35;;;24.20;94.90;;;;;;4995090;28;20030;-74
2023/07/26 12:23:22;;;;;;;18.33;12.77;;;24.20;95.20;;;;;;4978819;28;20165;-74
2023/07/26 12:25:58;;;;;;;18.10;11.80;;;24.20;95.40;;;;;;4980527;28;20038;-74
2023/07/26 12:28:24;;;;;;;16.10;11.45;;;24.20;95.00;;;;;;4979915;28;20133;-74
2023/07/26 12:30:54;;;;;;;18.45;11.70;;;24.20;95.30;;;;;;4984585;28;20066;-74
2023/07/26 12:33:21;;;;;;;16.45;11.35;;;24.30;95.50;;;;;;4983979;28;20132;-76
2023/07/26 12:35:47;;;;;;;13.50;11.18;;;24.30;95.80;;;;;;4982598;28;20035;-74